Eurasian Highway — 7JKY — position and weather

sailwx.info

Track history (hours):
 
Tides and Currents Weather Stations Pressure Air Temp Water Temp Dewpoint Dewpoint Depression Visibility Wind Speed Wind Dir Waves Ship Positions

Eurasian Highway

Last reported at 2015-Jul-31 07:33 UTC. Time now 2015-Aug-02 12:25 UTC.
Position N 32°04' W 079°57'.

Length 199 m; draft 8.6 m.

Type: Cargo ship. MMSI: 432839000.

Date/timePositionNaut miles runAvg speedWind from/ knotsBaromVisibWave heightAir tempDewpointWater temp
2015-Jul-31 07:33N 32°04' W 079°57'4419.0
2015-Jul-31 05:14N 31°27' W 080°25'1919.7
2015-Jul-31 04:18N 31°12' W 080°38'1419.5
2015-Jul-31 03:33N 31°05' W 080°53'1817.2
2015-Jul-31 02:32N 31°01' W 081°13'1211.8
2015-Jul-31 01:33N 31°08' W 081°24'7 6.6
2015-Jul-31 00:32N 31°08' W 081°32'0 0.0
2015-Jul-30 23:32N 31°08' W 081°32'0 0.0
2015-Jul-30 10:20N 31°08' W 081°32'0 0.0
2015-Jul-30 09:32N 31°08' W 081°32'0 0.0
2015-Jul-30 08:29N 31°08' W 081°32'0 0.0
2015-Jul-30 07:32N 31°08' W 081°32'0 0.0
2015-Jul-30 06:26N 31°08' W 081°32'0 0.0
2015-Jul-30 01:29N 31°08' W 081°32'0 0.0
2015-Jul-30 00:26N 31°08' W 081°32'17 2.8
2015-Jul-29 18:26N 31°02' W 081°14'4812.2
2015-Jul-29 14:30N 31°18' W 080°21'1817.6
2015-Jul-29 13:29N 31°30' W 080°05'1817.4
2015-Jul-29 12:29N 31°41' W 079°50'3817.8
2015-Jul-29 10:19N 32°07' W 079°16'1519.0
2015-Jul-29 09:33N 32°16' W 079°03'1919.3
2015-Jul-29 08:34N 32°29' W 078°46'17018.9
2015-Jul-28 23:32N 34°22' W 076°14'1817.8
2015-Jul-28 22:32N 34°34' W 075°57'2017.0
2015-Jul-28 21:21N 34°47' W 075°39'18715.2
2015-Jul-28 09:04N 37°53' W 076°10'1018.5
2015-Jul-28 08:33N 38°02' W 076°13'2018.7
2015-Jul-28 07:29N 38°21' W 076°19'1817.6
2015-Jul-28 06:28N 38°38' W 076°25'1617.8
2015-Jul-28 05:33N 38°54' W 076°24'1413.7
2015-Jul-28 04:33N 39°08' W 076°24'9 9.1
2015-Jul-28 03:34N 39°15' W 076°33'1 0.9
2015-Jul-28 02:32N 39°15' W 076°32'0 0.0
2015-Jul-28 01:32N 39°15' W 076°32'0 0.0
2015-Jul-28 00:33N 39°15' W 076°32'0 0.0
2015-Jul-27 23:33N 39°15' W 076°32'0 0.0
2015-Jul-27 22:33N 39°15' W 076°32'0 0.0
2015-Jul-27 21:33N 39°15' W 076°32'0 0.0
2015-Jul-27 20:33N 39°15' W 076°32'0 0.0
2015-Jul-27 19:32N 39°15' W 076°32'0 0.0
2015-Jul-27 18:32N 39°15' W 076°32'0 0.0
2015-Jul-27 17:32N 39°15' W 076°32'0 0.0
2015-Jul-27 16:29N 39°15' W 076°32'0 0.4
2015-Jul-27 15:33N 39°15' W 076°32'2 1.9
2015-Jul-27 14:33N 39°15' W 076°35'0 0.0
2015-Jul-27 13:33N 39°15' W 076°35'0 0.0
2015-Jul-27 12:33N 39°15' W 076°35'0 0.0
2015-Jul-27 11:33N 39°15' W 076°35'0 0.0
2015-Jul-27 10:33N 39°15' W 076°35'0 0.0
2015-Jul-27 09:33N 39°15' W 076°35'0 0.0
2015-Jul-27 08:33N 39°15' W 076°35'0 0.0
2015-Jul-27 07:34N 39°15' W 076°35'4 3.7
2015-Jul-27 06:34N 39°13' W 076°31'1211.9
2015-Jul-27 05:33N 39°02' W 076°23'1818.3
2015-Jul-27 04:33N 38°44' W 076°26'1918.7
2015-Jul-27 03:33N 38°26' W 076°22'1919.2
2015-Jul-27 02:33N 38°08' W 076°14'1818.5
2015-Jul-27 01:33N 37°50' W 076°10'1717.1
2015-Jul-27 00:33N 37°33' W 076°02'1818.5
2015-Jul-26 23:33N 37°16' W 076°08'  
Track history (hours):
 
Tides and Currents Weather Stations Pressure Air Temp Water Temp Dewpoint Dewpoint Depression Visibility Wind Speed Wind Dir Waves Ship Positions

Eurasian Highway

Last reported at 2015-Jul-31 07:33 UTC. Time now 2015-Aug-02 12:25 UTC.
Position N 32°04' W 079°57'.

Length 199 m; draft 8.6 m.

Type: Cargo ship. MMSI: 432839000.

Date/timePositionNaut miles runAvg speedWind from/ knotsBaromVisibWave heightAir tempDewpointWater temp
2015-Jul-31 07:33N 32°04' W 079°57'4419.0
2015-Jul-31 05:14N 31°27' W 080°25'1919.7
2015-Jul-31 04:18N 31°12' W 080°38'1419.5
2015-Jul-31 03:33N 31°05' W 080°53'1817.2
2015-Jul-31 02:32N 31°01' W 081°13'1211.8
2015-Jul-31 01:33N 31°08' W 081°24'7 6.6
2015-Jul-31 00:32N 31°08' W 081°32'0 0.0
2015-Jul-30 23:32N 31°08' W 081°32'0 0.0
2015-Jul-30 10:20N 31°08' W 081°32'0 0.0
2015-Jul-30 09:32N 31°08' W 081°32'0 0.0
2015-Jul-30 08:29N 31°08' W 081°32'0 0.0
2015-Jul-30 07:32N 31°08' W 081°32'0 0.0
2015-Jul-30 06:26N 31°08' W 081°32'0 0.0
2015-Jul-30 01:29N 31°08' W 081°32'0 0.0
2015-Jul-30 00:26N 31°08' W 081°32'17 2.8
2015-Jul-29 18:26N 31°02' W 081°14'4812.2
2015-Jul-29 14:30N 31°18' W 080°21'1817.6
2015-Jul-29 13:29N 31°30' W 080°05'1817.4
2015-Jul-29 12:29N 31°41' W 079°50'3817.8
2015-Jul-29 10:19N 32°07' W 079°16'1519.0
2015-Jul-29 09:33N 32°16' W 079°03'1919.3
2015-Jul-29 08:34N 32°29' W 078°46'17018.9
2015-Jul-28 23:32N 34°22' W 076°14'1817.8
2015-Jul-28 22:32N 34°34' W 075°57'2017.0
2015-Jul-28 21:21N 34°47' W 075°39'18715.2
2015-Jul-28 09:04N 37°53' W 076°10'1018.5
2015-Jul-28 08:33N 38°02' W 076°13'2018.7
2015-Jul-28 07:29N 38°21' W 076°19'1817.6
2015-Jul-28 06:28N 38°38' W 076°25'1617.8
2015-Jul-28 05:33N 38°54' W 076°24'1413.7
2015-Jul-28 04:33N 39°08' W 076°24'9 9.1
2015-Jul-28 03:34N 39°15' W 076°33'1 0.9
2015-Jul-28 02:32N 39°15' W 076°32'0 0.0
2015-Jul-28 01:32N 39°15' W 076°32'0 0.0
2015-Jul-28 00:33N 39°15' W 076°32'0 0.0
2015-Jul-27 23:33N 39°15' W 076°32'0 0.0
2015-Jul-27 22:33N 39°15' W 076°32'0 0.0
2015-Jul-27 21:33N 39°15' W 076°32'0 0.0
2015-Jul-27 20:33N 39°15' W 076°32'0 0.0
2015-Jul-27 19:32N 39°15' W 076°32'0 0.0
2015-Jul-27 18:32N 39°15' W 076°32'0 0.0
2015-Jul-27 17:32N 39°15' W 076°32'0 0.0
2015-Jul-27 16:29N 39°15' W 076°32'0 0.4
2015-Jul-27 15:33N 39°15' W 076°32'2 1.9
2015-Jul-27 14:33N 39°15' W 076°35'0 0.0
2015-Jul-27 13:33N 39°15' W 076°35'0 0.0
2015-Jul-27 12:33N 39°15' W 076°35'0 0.0
2015-Jul-27 11:33N 39°15' W 076°35'0 0.0
2015-Jul-27 10:33N 39°15' W 076°35'0 0.0
2015-Jul-27 09:33N 39°15' W 076°35'0 0.0
2015-Jul-27 08:33N 39°15' W 076°35'0 0.0
2015-Jul-27 07:34N 39°15' W 076°35'4 3.7
2015-Jul-27 06:34N 39°13' W 076°31'1211.9
2015-Jul-27 05:33N 39°02' W 076°23'1818.3
2015-Jul-27 04:33N 38°44' W 076°26'1918.7
2015-Jul-27 03:33N 38°26' W 076°22'1919.2
2015-Jul-27 02:33N 38°08' W 076°14'1818.5
2015-Jul-27 01:33N 37°50' W 076°10'1717.1
2015-Jul-27 00:33N 37°33' W 076°02'1818.5
2015-Jul-26 23:33N 37°16' W 076°08'  

Dump ship's entire track history